CUR weather

Hato International Airport
Willemstad, Curaçao

Public forecast

Using degrees Celsius for public forecast. Weather courtesy of forecast.io.

METAR (pilot weather report)

Retrieved 2019/09/21 11:00 UTC (57 minutes ago):

TNCC 211100Z 13004KT 9999 SCT015 28/25 Q1011 NOSIG

TAF (pilot weather forecast)

Retrieved 2019/09/21 06:26 UTC (6 hours ago):

TAF TNCC 210515Z 2106/2206 10008KT 9999 SCT018 PROB30 TEMPO 2102/2112 VRB10G21KT 5000 TSRA FEW012CB BKN014